Time;durP1;ratioP1;P1;durP2;ratioP2;P2;SDS_P1;SDS_P2;PMS_P1;PMS_P2;Temp;Humidity;BMP_temperature;BMP_pressure;BME280_temperature;BME280_humidity;BME280_pressure;Samples;Min_cycle;Max_cycle;Signal;HPM_P1;HPM_P2
2023/03/18 00:01:36;;;;;;;12.30;8.90;;;;;;;3.48;100.00;100611.84;107611;1270;22986;-67
2023/03/18 00:04:05;;;;;;;13.00;9.20;;;;;;;3.47;100.00;100610.29;107671;1274;26607;-67
2023/03/18 00:06:35;;;;;;;13.00;9.40;;;;;;;3.43;100.00;100608.52;107701;1273;26483;-67
2023/03/18 00:09:03;;;;;;;11.10;8.40;;;;;;;3.45;100.00;100609.88;110473;1274;22331;-68
2023/03/18 00:11:32;;;;;;;13.20;9.50;;;;;;;3.46;100.00;100611.59;110455;1274;22279;-67
2023/03/18 00:14:00;;;;;;;12.20;9.40;;;;;;;3.43;100.00;100611.08;110457;1274;22273;-67
2023/03/18 00:16:35;;;;;;;14.60;9.70;;;;;;;3.45;100.00;100614.02;110433;1273;22524;-67
2023/03/18 00:19:03;;;;;;;14.70;9.40;;;;;;;3.49;100.00;100613.65;110434;1267;22284;-67
2023/03/18 00:21:32;;;;;;;11.90;9.30;;;;;;;3.49;100.00;100610.63;110441;1267;22443;-67
2023/03/18 00:24:00;;;;;;;11.10;9.10;;;;;;;3.50;100.00;100608.64;110449;1274;23001;-67
2023/03/18 00:26:29;;;;;;;12.80;9.20;;;;;;;3.53;100.00;100604.92;110392;1267;22410;-67
2023/03/18 00:29:06;;;;;;;12.00;9.30;;;;;;;3.52;100.00;100606.33;110383;1274;22383;-67
2023/03/18 00:31:35;;;;;;;13.00;9.40;;;;;;;3.47;100.00;100609.55;110348;1275;22940;-67
2023/03/18 00:34:04;;;;;;;10.90;8.70;;;;;;;3.52;100.00;100610.27;110407;1275;22369;-67
2023/03/18 00:36:33;;;;;;;11.50;9.20;;;;;;;3.52;100.00;100606.81;110389;1274;22337;-68
2023/03/18 00:39:06;;;;;;;13.00;8.40;;;;;;;3.50;100.00;100603.32;110433;1274;23160;-66
2023/03/18 00:41:37;;;;;;;11.10;8.70;;;;;;;3.50;100.00;100608.80;110407;1261;22440;-66
2023/03/18 00:44:06;;;;;;;12.50;9.40;;;;;;;3.49;100.00;100608.60;110463;1274;22197;-66
2023/03/18 00:46:36;;;;;;;12.10;9.60;;;;;;;3.46;100.00;100605.87;110443;1275;22209;-66
2023/03/18 00:49:07;;;;;;;11.80;8.60;;;;;;;3.48;100.00;100606.08;110339;1275;23043;-66
2023/03/18 00:51:36;;;;;;;11.20;8.30;;;;;;;3.47;100.00;100609.27;110309;1270;22430;-67
2023/03/18 00:54:12;;;;;;;10.80;8.50;;;;;;;3.42;100.00;100607.91;110387;1273;22404;-66
2023/03/18 00:56:40;;;;;;;11.60;8.60;;;;;;;3.46;100.00;100608.84;110309;1275;22554;-66
2023/03/18 00:59:09;;;;;;;11.50;8.90;;;;;;;3.43;100.00;100611.36;110372;1273;22214;-66
2023/03/18 01:01:38;;;;;;;11.80;9.50;;;;;;;3.44;100.00;100607.31;110373;1275;22413;-66
2023/03/18 01:04:07;;;;;;;11.90;8.70;;;;;;;3.47;100.00;100607.44;110179;1274;22515;-66
2023/03/18 01:06:44;;;;;;;11.10;8.40;;;;;;;3.46;100.00;100611.62;107629;1273;22528;-66
2023/03/18 01:09:13;;;;;;;11.30;8.30;;;;;;;3.45;100.00;100607.39;107713;1275;25294;-66
2023/03/18 01:11:41;;;;;;;13.10;9.40;;;;;;;3.43;100.00;100612.04;107960;1274;24221;-66
2023/03/18 01:14:09;;;;;;;11.10;8.00;;;;;;;3.39;100.00;100612.86;107694;1274;22523;-66
2023/03/18 01:16:40;;;;;;;10.90;8.60;;;;;;;3.40;100.00;100610.78;107561;1274;25414;-66
2023/03/18 01:19:08;;;;;;;10.40;7.70;;;;;;;3.40;100.00;100614.22;107582;1274;23899;-66
2023/03/18 01:21:36;;;;;;;13.90;8.80;;;;;;;3.34;100.00;100617.67;107540;1270;22551;-66
2023/03/18 01:24:05;;;;;;;12.20;8.70;;;;;;;3.34;100.00;100621.48;107711;1274;23214;-66
2023/03/18 01:26:35;;;;;;;11.80;8.60;;;;;;;3.32;100.00;100616.02;107746;1274;22900;-66
2023/03/18 01:29:04;;;;;;;15.20;9.00;;;;;;;3.28;100.00;100619.33;107674;1273;22572;-66
2023/03/18 01:31:33;;;;;;;11.10;8.10;;;;;;;3.30;100.00;100615.31;107465;1270;22552;-66
2023/03/18 01:34:06;;;;;;;12.90;8.60;;;;;;;3.31;100.00;100614.89;110435;1271;22314;-66
2023/03/18 01:36:49;;;;;;;12.00;8.10;;;;;;;3.28;100.00;100615.23;110387;1275;22203;-67
2023/03/18 01:39:17;;;;;;;9.60;7.60;;;;;;;3.33;100.00;100613.08;110420;1274;22259;-66
2023/03/18 01:41:47;;;;;;;11.10;8.10;;;;;;;3.39;100.00;100619.65;110401;1269;23145;-66
2023/03/18 01:44:21;;;;;;;10.60;7.60;;;;;;;3.38;100.00;100615.09;110389;1275;22986;-66
2023/03/18 01:46:52;;;;;;;9.60;7.50;;;;;;;3.36;100.00;100615.08;110451;1274;22458;-66
2023/03/18 01:49:24;;;;;;;10.80;7.60;;;;;;;3.41;100.00;100619.77;110441;1273;22196;-67
2023/03/18 01:52:10;;;;;;;9.50;7.20;;;;;;;3.41;100.00;100621.39;110355;1274;22150;-66
2023/03/18 01:55:00;;;;;;;9.30;6.70;;;;;;;3.38;100.00;100618.89;109698;1268;24379;-66
2023/03/18 01:57:31;;;;;;;10.00;7.60;;;;;;;3.42;100.00;100621.39;107584;1273;22548;-66
2023/03/18 02:00:00;;;;;;;9.00;6.90;;;;;;;3.35;100.00;100628.61;107552;1275;25303;-66
2023/03/18 02:02:33;;;;;;;10.40;7.60;;;;;;;3.36;100.00;100629.77;107662;1274;22319;-67
2023/03/18 02:05:05;;;;;;;11.50;7.70;;;;;;;3.32;100.00;100631.27;107566;1266;25284;-67
2023/03/18 02:07:34;;;;;;;10.10;7.80;;;;;;;3.28;100.00;100631.55;107977;1275;25331;-67
2023/03/18 02:10:06;;;;;;;9.00;7.30;;;;;;;3.30;100.00;100639.04;107662;1274;22520;-66
2023/03/18 02:12:37;;;;;;;9.60;6.90;;;;;;;3.25;100.00;100637.08;108015;1272;25287;-67
2023/03/18 02:15:10;;;;;;;9.50;7.00;;;;;;;3.27;100.00;100637.94;107643;1269;23868;-67
2023/03/18 02:17:44;;;;;;;8.80;7.30;;;;;;;3.26;100.00;100636.73;107562;1273;26277;-66
2023/03/18 02:20:58;;;;;;;9.60;7.40;;;;;;;3.21;100.00;100639.38;108376;1273;24355;-67
2023/03/18 02:23:37;;;;;;;10.80;7.80;;;;;;;3.26;100.00;100645.43;107933;1275;22528;-67
2023/03/18 02:26:38;;;;;;;10.60;8.10;;;;;;;3.24;100.00;100646.27;107673;1274;22569;-67
2023/03/18 02:29:10;;;;;;;11.00;7.50;;;;;;;3.23;100.00;100645.55;107755;1274;23949;-67
2023/03/18 02:31:45;;;;;;;10.60;8.30;;;;;;;3.26;100.00;100649.08;107578;1273;22543;-66
2023/03/18 02:34:14;;;;;;;11.40;8.60;;;;;;;3.23;100.00;100649.10;107650;1260;24258;-66
2023/03/18 02:36:43;;;;;;;12.70;9.40;;;;;;;3.27;100.00;100656.80;107383;1275;25335;-66
2023/03/18 02:39:13;;;;;;;12.10;8.80;;;;;;;3.27;100.00;100653.63;107529;1274;22514;-67
2023/03/18 02:41:43;;;;;;;11.80;8.30;;;;;;;3.20;100.00;100650.73;107625;1274;23294;-66
2023/03/18 02:44:13;;;;;;;10.60;7.90;;;;;;;3.25;100.00;100653.09;107771;1268;23783;-67
2023/03/18 02:46:56;;;;;;;12.80;8.90;;;;;;;3.27;100.00;100652.94;107444;1275;25428;-67
2023/03/18 02:49:26;;;;;;;12.20;8.50;;;;;;;3.23;100.00;100653.33;107634;1274;25509;-67
2023/03/18 02:51:55;;;;;;;14.60;8.50;;;;;;;3.27;100.00;100656.30;110270;1273;22300;-67
2023/03/18 02:54:27;;;;;;;12.40;8.70;;;;;;;3.26;100.00;100662.27;110335;1274;22199;-67
2023/03/18 02:56:55;;;;;;;12.70;8.90;;;;;;;3.20;100.00;100657.59;110477;1269;22312;-67
2023/03/18 02:59:28;;;;;;;10.80;8.50;;;;;;;3.26;100.00;100659.80;110373;1275;22427;-67
2023/03/18 03:01:57;;;;;;;14.10;9.60;;;;;;;3.27;100.00;100661.13;110430;1273;22885;-68
2023/03/18 03:04:25;;;;;;;12.10;9.10;;;;;;;3.23;100.00;100665.46;110330;1267;23167;-67
2023/03/18 03:06:56;;;;;;;11.90;9.40;;;;;;;3.26;100.00;100668.26;110405;1275;22205;-67
2023/03/18 03:09:38;;;;;;;13.20;10.00;;;;;;;3.28;100.00;100666.77;110435;1272;22415;-67
2023/03/18 03:12:11;;;;;;;12.90;9.40;;;;;;;3.23;100.00;100670.52;110362;1274;22225;-67
2023/03/18 03:14:47;;;;;;;12.30;8.80;;;;;;;3.27;100.00;100668.34;110407;1267;22498;-67
2023/03/18 03:17:16;;;;;;;12.10;8.60;;;;;;;3.28;100.00;100673.23;110336;1269;23101;-67
2023/03/18 03:19:47;;;;;;;11.00;8.20;;;;;;;3.24;100.00;100669.53;110341;1273;22364;-67
2023/03/18 03:22:16;;;;;;;13.10;8.60;;;;;;;3.26;100.00;100673.80;110489;1273;22200;-67
2023/03/18 03:24:46;;;;;;;10.70;7.70;;;;;;;3.21;100.00;100673.91;110420;1274;23389;-66
2023/03/18 03:27:15;;;;;;;11.10;7.90;;;;;;;3.22;100.00;100675.11;110439;1273;22387;-66
2023/03/18 03:29:44;;;;;;;13.50;8.40;;;;;;;3.19;100.00;100674.89;110475;1273;22193;-66
2023/03/18 03:32:14;;;;;;;12.20;7.90;;;;;;;3.17;100.00;100674.13;110487;1274;23043;-66
2023/03/18 03:34:44;;;;;;;9.70;7.40;;;;;;;3.20;100.00;100670.48;110441;1274;22277;-66
2023/03/18 03:37:12;;;;;;;12.40;7.60;;;;;;;3.18;100.00;100668.14;110361;1270;22221;-66
2023/03/18 03:39:43;;;;;;;11.70;7.60;;;;;;;3.14;100.00;100669.30;110477;1268;22265;-66
2023/03/18 03:42:12;;;;;;;12.30;6.80;;;;;;;3.18;100.00;100671.45;110486;1274;22315;-66
2023/03/18 03:44:41;;;;;;;11.90;7.40;;;;;;;3.15;100.00;100670.78;109756;1274;24496;-66
2023/03/18 03:47:10;;;;;;;12.10;7.20;;;;;;;3.11;100.00;100669.19;106752;1270;25382;-65
2023/03/18 03:49:39;;;;;;;10.80;7.00;;;;;;;3.12;100.00;100666.57;106857;1274;25406;-66
2023/03/18 03:52:07;;;;;;;13.10;7.40;;;;;;;3.08;100.00;100667.14;106772;1275;23870;-66
2023/03/18 03:54:37;;;;;;;10.40;6.30;;;;;;;3.06;100.00;100670.45;106995;1273;25396;-66
2023/03/18 03:57:06;;;;;;;11.20;7.20;;;;;;;3.07;100.00;100671.16;107026;1267;22802;-66
2023/03/18 03:59:35;;;;;;;11.00;6.70;;;;;;;3.02;100.00;100670.52;106756;1274;27647;-66
2023/03/18 04:02:17;;;;;;;11.10;6.30;;;;;;;3.00;100.00;100669.92;107337;1267;26281;-66
2023/03/18 04:04:47;;;;;;;10.60;6.40;;;;;;;2.98;100.00;100668.00;107561;1251;22558;-66
2023/03/18 04:07:22;;;;;;;10.30;6.50;;;;;;;2.94;100.00;100668.70;107893;1273;27054;-66
2023/03/18 04:09:54;;;;;;;9.40;6.00;;;;;;;2.98;100.00;100670.73;109145;1269;23089;-67
2023/03/18 04:12:23;;;;;;;13.60;6.50;;;;;;;2.98;100.00;100664.61;110452;1274;22395;-67
2023/03/18 04:14:57;;;;;;;10.10;6.50;;;;;;;2.92;100.00;100670.17;110370;1267;22265;-67
2023/03/18 04:17:26;;;;;;;12.40;6.40;;;;;;;2.94;100.00;100670.64;110441;1274;22219;-67
2023/03/18 04:19:54;;;;;;;10.10;6.40;;;;;;;2.99;100.00;100667.39;110340;1274;22484;-66
2023/03/18 04:22:30;;;;;;;11.00;6.30;;;;;;;2.97;100.00;100668.23;110378;1270;23166;-67
2023/03/18 04:25:00;;;;;;;9.40;6.00;;;;;;;2.99;100.00;100667.56;110340;1272;22412;-66
2023/03/18 04:27:29;;;;;;;10.30;6.00;;;;;;;3.00;100.00;100669.59;110391;1274;22258;-66
2023/03/18 04:29:59;;;;;;;9.50;6.00;;;;;;;2.96;100.00;100666.80;110389;1271;22140;-67
2023/03/18 04:32:34;;;;;;;12.80;6.40;;;;;;;2.98;100.00;100668.22;110427;1275;22186;-67
2023/03/18 04:35:08;;;;;;;9.40;6.40;;;;;;;2.94;100.00;100667.78;110435;1274;22262;-66
2023/03/18 04:37:37;;;;;;;10.60;6.20;;;;;;;2.91;100.00;100665.33;110363;1267;22978;-66
2023/03/18 04:40:06;;;;;;;9.50;5.70;;;;;;;2.95;100.00;100669.24;109829;1274;23439;-66
2023/03/18 04:42:35;;;;;;;11.30;6.40;;;;;;;2.94;100.00;100668.16;107433;1274;22504;-66
2023/03/18 04:45:05;;;;;;;11.50;6.10;;;;;;;2.92;100.00;100671.67;107493;1270;23857;-66
2023/03/18 04:47:34;;;;;;;8.40;5.50;;;;;;;2.95;100.00;100672.59;107634;1267;23086;-66
2023/03/18 04:50:03;;;;;;;10.10;6.20;;;;;;;2.94;100.00;100673.91;107764;1267;22545;-66
2023/03/18 04:52:32;;;;;;;10.30;6.10;;;;;;;2.90;100.00;100673.34;107661;1274;25462;-66
2023/03/18 04:55:02;;;;;;;10.30;5.80;;;;;;;2.93;100.00;100675.28;107933;1274;23401;-66
2023/03/18 04:57:34;;;;;;;11.80;6.60;;;;;;;2.92;100.00;100674.39;108003;1274;23871;-67
2023/03/18 05:00:10;;;;;;;12.20;6.80;;;;;;;2.89;100.00;100679.84;107777;1268;25303;-66
2023/03/18 05:02:40;;;;;;;8.60;6.10;;;;;;;2.90;100.00;100679.96;107679;1275;22528;-66
2023/03/18 05:05:09;;;;;;;10.60;6.90;;;;;;;2.93;100.00;100684.88;107569;1267;22533;-66
2023/03/18 05:07:42;;;;;;;11.00;6.60;;;;;;;2.91;100.00;100684.85;107698;1273;25544;-66
2023/03/18 05:10:13;;;;;;;10.60;6.60;;;;;;;2.90;100.00;100681.67;107426;1264;22520;-66
2023/03/18 05:12:42;;;;;;;10.90;6.90;;;;;;;2.97;100.00;100685.13;107705;1270;22609;-66
2023/03/18 05:15:12;;;;;;;10.40;7.00;;;;;;;2.98;100.00;100688.82;107771;1268;25141;-66
2023/03/18 05:17:45;;;;;;;9.80;6.30;;;;;;;2.97;100.00;100685.84;107518;1274;25886;-66
2023/03/18 05:20:15;;;;;;;10.90;6.90;;;;;;;2.98;100.00;100690.92;107697;1270;26730;-65
2023/03/18 05:22:45;;;;;;;11.20;7.00;;;;;;;2.96;100.00;100686.96;107694;1274;162656;-66
2023/03/18 05:25:50;;;;;;;11.40;7.00;;;;;;;3.03;100.00;100683.69;103667;1305;545315;-66
2023/03/18 05:28:20;;;;;;;10.90;6.60;;;;;;;3.01;100.00;100690.09;106460;1288;25386;-66
2023/03/18 05:31:27;;;;;;;12.30;7.00;;;;;;;3.05;100.00;100690.55;105980;1286;23333;-66
2023/03/18 05:33:56;;;;;;;11.80;7.50;;;;;;;3.02;100.00;100692.33;105798;1288;25514;-65
2023/03/18 05:36:25;;;;;;;12.20;6.20;;;;;;;3.00;100.00;100690.50;109965;1281;22999;-66
2023/03/18 05:39:06;;;;;;;12.30;6.80;;;;;;;3.06;100.00;100691.69;109746;1279;261455;-66
2023/03/18 05:41:35;;;;;;;10.10;6.90;;;;;;;3.09;100.00;100695.80;109964;1276;22407;-66
2023/03/18 05:44:04;;;;;;;9.60;6.00;;;;;;;3.13;100.00;100697.75;109968;1279;22831;-66
2023/03/18 05:46:36;;;;;;;10.80;6.50;;;;;;;3.19;100.00;100701.20;109953;1279;22353;-66
2023/03/18 05:49:14;;;;;;;11.60;6.50;;;;;;;3.18;100.00;100699.61;110015;1279;22822;-67
2023/03/18 05:52:00;;;;;;;10.00;6.80;;;;;;;3.24;100.00;100703.64;110006;1279;23245;-66
2023/03/18 05:54:37;;;;;;;10.30;6.90;;;;;;;3.31;100.00;100707.77;110070;1279;22212;-66
2023/03/18 05:57:06;;;;;;;9.90;6.20;;;;;;;3.31;100.00;100708.47;110042;1279;22196;-66
2023/03/18 05:59:34;;;;;;;10.10;6.70;;;;;;;3.35;100.00;100709.20;110163;1279;22417;-66
2023/03/18 06:02:08;;;;;;;9.30;6.10;;;;;;;3.40;100.00;100708.91;110086;1276;22381;-66
2023/03/18 06:04:37;;;;;;;10.20;7.20;;;;;;;3.39;100.00;100710.78;109987;1279;22310;-66
2023/03/18 06:07:05;;;;;;;11.30;6.20;;;;;;;3.39;100.00;100711.94;110002;1279;22424;-66
2023/03/18 06:09:36;;;;;;;11.50;6.70;;;;;;;3.43;100.00;100712.48;109937;1276;22308;-68
2023/03/18 06:12:06;;;;;;;9.60;6.20;;;;;;;3.44;100.00;100713.23;110082;1263;22471;-68
2023/03/18 06:14:36;;;;;;;11.20;7.10;;;;;;;3.45;100.00;100716.30;110116;1273;22382;-68
2023/03/18 06:17:06;;;;;;;10.20;6.20;;;;;;;3.54;100.00;100716.02;110145;1279;22212;-68
2023/03/18 06:19:35;;;;;;;11.40;7.10;;;;;;;3.61;100.00;100718.38;110129;1279;22265;-68
2023/03/18 06:22:03;;;;;;;9.40;6.40;;;;;;;3.62;100.00;100715.13;110084;1279;22288;-68
2023/03/18 06:24:35;;;;;;;9.10;6.30;;;;;;;3.69;100.00;100711.48;109974;1279;22424;-68
2023/03/18 06:27:04;;;;;;;10.20;6.40;;;;;;;3.78;100.00;100709.61;109977;1279;22477;-68
2023/03/18 06:29:33;;;;;;;9.60;6.20;;;;;;;3.84;100.00;100711.31;110016;1279;22489;-68
2023/03/18 06:32:09;;;;;;;9.40;6.40;;;;;;;3.90;100.00;100715.35;109988;1276;22383;-68
2023/03/18 06:34:37;;;;;;;10.70;6.40;;;;;;;3.98;100.00;100713.83;110131;1279;22230;-68
2023/03/18 06:37:06;;;;;;;10.20;6.40;;;;;;;4.04;100.00;100712.59;110004;1279;22929;-68
2023/03/18 06:39:35;;;;;;;12.40;7.10;;;;;;;4.05;100.00;100708.27;110047;1279;22263;-69
2023/03/18 06:42:07;;;;;;;9.00;5.90;;;;;;;4.04;100.00;100706.89;109765;1279;22870;-68
2023/03/18 06:44:41;;;;;;;8.40;5.40;;;;;;;4.12;100.00;100710.04;107104;1279;22655;-68
2023/03/18 06:47:18;;;;;;;9.50;5.90;;;;;;;4.13;100.00;100703.73;107158;1279;23192;-68
2023/03/18 06:49:53;;;;;;;10.10;6.50;;;;;;;4.14;100.00;100701.29;107239;1274;24231;-68
2023/03/18 06:52:27;;;;;;;11.30;6.10;;;;;;;4.21;100.00;100702.19;107077;1276;23255;-67
2023/03/18 06:54:59;;;;;;;11.20;6.90;;;;;;;4.24;100.00;100704.23;107388;1279;22550;-68
2023/03/18 06:57:28;;;;;;;9.70;6.40;;;;;;;4.23;100.00;100703.19;107428;1274;25997;-68
2023/03/18 07:00:03;;;;;;;10.80;7.10;;;;;;;4.22;100.00;100707.34;107171;1279;25369;-68
2023/03/18 07:02:35;;;;;;;11.30;7.30;;;;;;;4.27;100.00;100702.58;107174;1274;25365;-68
2023/03/18 07:05:07;;;;;;;9.70;6.60;;;;;;;4.35;100.00;100702.54;107412;1279;24262;-68
2023/03/18 07:07:36;;;;;;;10.90;7.60;;;;;;;4.36;100.00;100701.16;107233;1279;23485;-68
2023/03/18 07:10:15;;;;;;;8.50;5.80;;;;;;;4.36;100.00;100707.59;107510;1279;22617;-68
2023/03/18 07:12:46;;;;;;;8.40;6.00;;;;;;;4.39;100.00;100699.67;107273;1273;23009;-68
2023/03/18 07:15:20;;;;;;;10.70;6.50;;;;;;;4.50;100.00;100699.23;107492;1277;26524;-67
2023/03/18 07:17:51;;;;;;;8.80;6.20;;;;;;;4.52;100.00;100695.13;106906;1274;25577;-67
2023/03/18 07:20:21;;;;;;;10.40;5.90;;;;;;;4.47;100.00;100695.02;110007;1279;23207;-68
2023/03/18 07:22:50;;;;;;;9.70;5.80;;;;;;;4.51;100.00;100695.67;110086;1279;22411;-68
2023/03/18 07:25:18;;;;;;;12.50;6.50;;;;;;;4.52;100.00;100694.27;109978;1279;22709;-67
2023/03/18 07:27:52;;;;;;;10.50;6.70;;;;;;;4.52;100.00;100692.52;110086;1276;22244;-68
2023/03/18 07:30:21;;;;;;;10.90;7.20;;;;;;;4.59;100.00;100692.64;110130;1274;22227;-68
2023/03/18 07:32:50;;;;;;;11.10;7.10;;;;;;;4.59;100.00;100699.24;110098;1272;22333;-68
2023/03/18 07:35:18;;;;;;;9.10;6.30;;;;;;;4.60;100.00;100699.41;109992;1279;22285;-69
2023/03/18 07:37:47;;;;;;;16.30;6.50;;;;;;;4.66;100.00;100704.20;109810;1279;22554;-67
2023/03/18 07:40:15;;;;;;;11.20;6.40;;;;;;;4.69;100.00;100702.95;107292;1274;24007;-68
2023/03/18 07:42:44;;;;;;;13.80;7.10;;;;;;;4.68;100.00;100710.80;107772;1277;24192;-68
2023/03/18 07:45:17;;;;;;;10.50;6.60;;;;;;;4.75;100.00;100708.96;107312;1277;24355;-68
2023/03/18 07:47:46;;;;;;;8.50;6.20;;;;;;;4.83;100.00;100704.63;107417;1276;22570;-68
2023/03/18 07:50:16;;;;;;;13.20;7.10;;;;;;;4.90;100.00;100703.45;107457;1273;23418;-68
2023/03/18 07:52:44;;;;;;;12.50;7.80;;;;;;;4.92;100.00;100704.15;107239;1277;25290;-68
2023/03/18 07:55:13;;;;;;;12.50;7.70;;;;;;;4.96;100.00;100707.08;107291;1279;22737;-68
2023/03/18 07:57:46;;;;;;;11.90;7.60;;;;;;;5.12;100.00;100705.42;107300;1273;25369;-68
2023/03/18 08:00:16;;;;;;;11.70;6.50;;;;;;;5.24;100.00;100703.46;107440;1274;22797;-68
2023/03/18 08:02:45;;;;;;;17.00;9.20;;;;;;;5.30;100.00;100704.45;107639;1273;25331;-68
2023/03/18 08:05:14;;;;;;;26.30;14.40;;;;;;;5.37;100.00;100704.63;107351;1273;23223;-68
2023/03/18 08:07:43;;;;;;;14.10;7.50;;;;;;;5.40;100.00;100703.77;107755;1275;22526;-67
2023/03/18 08:10:13;;;;;;;11.00;7.00;;;;;;;5.47;100.00;100697.02;107093;1263;24048;-67
2023/03/18 08:12:46;;;;;;;11.60;6.30;;;;;;;5.39;100.00;100703.86;107285;1279;22522;-67
2023/03/18 08:15:21;;;;;;;11.60;6.90;;;;;;;5.30;100.00;100700.38;109974;1279;22508;-67
2023/03/18 08:17:52;;;;;;;11.20;6.80;;;;;;;5.33;100.00;100701.43;110152;1279;22234;-68
2023/03/18 08:20:23;;;;;;;9.70;7.30;;;;;;;5.38;100.00;100699.49;110008;1273;22956;-69
2023/03/18 08:22:51;;;;;;;10.30;6.90;;;;;;;5.43;100.00;100703.14;110052;1279;22341;-69
2023/03/18 08:25:22;;;;;;;8.80;5.90;;;;;;;5.52;100.00;100696.40;110069;1273;22347;-68
2023/03/18 08:27:52;;;;;;;11.30;7.20;;;;;;;5.58;100.00;100694.92;110090;1273;23075;-68
2023/03/18 08:30:24;;;;;;;10.10;6.40;;;;;;;5.65;100.00;100698.46;109951;1279;22295;-69
2023/03/18 08:32:54;;;;;;;10.40;7.10;;;;;;;5.72;100.00;100691.02;109994;1273;22351;-68
2023/03/18 08:35:22;;;;;;;8.00;6.00;;;;;;;5.76;100.00;100696.35;110114;1273;22211;-68
2023/03/18 08:37:56;;;;;;;8.50;5.90;;;;;;;5.83;100.00;100698.48;110174;1279;22332;-69
2023/03/18 08:40:25;;;;;;;7.80;6.40;;;;;;;5.90;100.00;100691.44;110131;1272;22415;-69
2023/03/18 08:42:54;;;;;;;8.60;5.90;;;;;;;5.99;100.00;100691.46;110170;1273;22204;-68
2023/03/18 08:45:22;;;;;;;10.10;6.50;;;;;;;6.04;100.00;100690.17;110169;1279;22226;-69
2023/03/18 08:47:51;;;;;;;8.50;5.90;;;;;;;6.14;100.00;100690.30;110165;1279;22342;-69
2023/03/18 08:50:19;;;;;;;9.50;6.10;;;;;;;6.39;100.00;100687.59;110151;1276;22297;-68
2023/03/18 08:52:49;;;;;;;8.60;5.90;;;;;;;6.59;100.00;100689.71;110173;1279;23106;-68
2023/03/18 08:55:20;;;;;;;9.10;6.10;;;;;;;6.67;100.00;100688.59;110157;1279;22225;-69
2023/03/18 08:57:49;;;;;;;8.20;4.90;;;;;;;6.72;100.00;100685.33;110166;1279;22209;-68
2023/03/18 09:00:17;;;;;;;14.80;8.70;;;;;;;6.68;100.00;100685.33;110128;1279;22455;-68
2023/03/18 09:02:47;;;;;;;21.00;13.00;;;;;;;6.60;100.00;100679.41;110098;1279;22871;-68
2023/03/18 09:05:16;;;;;;;11.40;7.20;;;;;;;6.61;100.00;100678.41;110123;1273;22423;-68
2023/03/18 09:07:45;;;;;;;7.50;5.20;;;;;;;6.67;100.00;100678.55;110145;1276;22197;-68
2023/03/18 09:10:18;;;;;;;8.10;4.90;;;;;;;6.76;100.00;100679.52;110012;1279;22315;-68
2023/03/18 09:12:48;;;;;;;8.30;4.40;;;;;;;6.78;100.00;100681.48;110157;1279;22182;-67
2023/03/18 09:15:19;;;;;;;6.70;5.00;;;;;;;6.76;100.00;100678.77;107405;1279;22660;-67
2023/03/18 09:17:52;;;;;;;7.80;5.10;;;;;;;6.66;100.00;100677.02;107255;1279;25465;-68
2023/03/18 09:20:39;;;;;;;8.20;5.30;;;;;;;6.59;100.00;100675.75;107295;1279;22539;-68
2023/03/18 09:23:11;;;;;;;7.50;5.10;;;;;;;6.51;100.00;100673.52;107184;1279;22572;-67
2023/03/18 09:25:41;;;;;;;10.60;4.80;;;;;;;6.47;100.00;100675.55;107994;1276;23861;-68
2023/03/18 09:28:10;;;;;;;7.80;4.50;;;;;;;6.46;100.00;100679.42;107423;1279;25514;-68
2023/03/18 09:30:39;;;;;;;6.50;4.30;;;;;;;6.46;100.00;100678.92;107784;1276;23243;-68
2023/03/18 09:33:10;;;;;;;12.50;7.00;;;;;;;6.42;100.00;100679.13;107382;1280;22521;-68
2023/03/18 09:35:45;;;;;;;20.50;10.20;;;;;;;6.36;100.00;100677.73;107921;1280;22555;-68
2023/03/18 09:38:18;;;;;;;9.30;5.40;;;;;;;6.34;100.00;100682.52;107270;1279;22546;-67
2023/03/18 09:41:15;;;;;;;8.60;4.80;;;;;;;6.46;100.00;100684.05;107324;1273;23058;-66
2023/03/18 09:44:01;;;;;;;7.70;4.80;;;;;;;6.52;100.00;100684.07;107511;1279;22671;-67
2023/03/18 09:46:46;;;;;;;6.90;5.10;;;;;;;6.47;100.00;100685.11;107415;1272;25388;-67
2023/03/18 09:49:14;;;;;;;13.10;6.60;;;;;;;6.42;100.00;100685.02;107183;1276;23054;-67
2023/03/18 09:52:22;;;;;;;6.70;4.60;;;;;;;6.53;100.00;100686.34;107233;1279;23491;-67
2023/03/18 09:55:10;;;;;;;9.70;6.10;;;;;;;6.55;100.00;100688.49;106404;1286;23203;-66
2023/03/18 09:57:41;;;;;;;;;;;;;;;6.51;100.00;100686.58;107440;1276;23234;-67
2023/03/18 10:00:34;;;;;;;8.00;5.30;;;;;;;6.49;100.00;100695.95;107405;1271;22955;-67
2023/03/18 10:03:08;;;;;;;8.50;5.40;;;;;;;6.54;100.00;100691.54;110029;1278;22747;-69
2023/03/18 10:05:53;;;;;;;15.30;8.90;;;;;;;6.57;100.00;100689.35;110215;1272;22214;-68
2023/03/18 10:08:43;;;;;;;9.70;6.00;;;;;;;6.59;100.00;100689.13;110009;1277;23196;-68
2023/03/18 10:11:36;;;;;;;7.80;5.90;;;;;;;6.61;100.00;100687.69;110164;1273;22413;-68
2023/03/18 10:14:07;;;;;;;8.40;6.00;;;;;;;6.62;100.00;100683.90;110102;1273;22466;-68
2023/03/18 10:16:49;;;;;;;8.20;5.80;;;;;;;6.68;100.00;100683.80;108706;1270;23261;-67
2023/03/18 10:19:18;;;;;;;9.10;4.90;;;;;;;6.66;100.00;100682.46;107696;1276;22555;-67
2023/03/18 10:22:28;;;;;;;6.60;4.40;;;;;;;6.68;100.00;100680.21;107399;1278;22585;-68
2023/03/18 10:25:06;;;;;;;13.90;6.90;;;;;;;6.68;100.00;100681.88;107548;1270;26249;-66
2023/03/18 10:28:04;;;;;;;7.80;4.40;;;;;;;6.71;100.00;100677.73;107446;1273;25402;-67
2023/03/18 10:30:45;;;;;;;6.20;4.30;;;;;;;6.76;100.00;100677.41;107433;1273;23342;-67
2023/03/18 10:33:38;;;;;;;5.80;4.00;;;;;;;6.72;100.00;100677.30;107251;1278;22583;-67
2023/03/18 10:36:19;;;;;;;6.30;4.30;;;;;;;6.64;100.00;100676.38;107485;1270;24403;-66
2023/03/18 10:38:49;;;;;;;6.80;3.60;;;;;;;6.63;100.00;100680.01;107367;1276;22734;-66
2023/03/18 10:41:22;;;;;;;8.30;3.70;;;;;;;6.66;100.00;100678.98;107437;1272;24276;-67
2023/03/18 10:43:54;;;;;;;5.20;3.00;;;;;;;6.77;100.00;100679.95;107488;1271;23641;-66
2023/03/18 10:46:24;;;;;;;6.40;3.60;;;;;;;6.77;100.00;100677.61;107439;1273;25516;-66
2023/03/18 10:49:06;;;;;;;4.60;2.70;;;;;;;6.75;100.00;100673.29;107720;1273;22570;-66
2023/03/18 10:51:39;;;;;;;4.70;3.10;;;;;;;6.74;100.00;100669.33;107409;1270;25341;-66
2023/03/18 10:54:28;;;;;;;4.90;2.90;;;;;;;6.71;100.00;100670.39;107355;1278;25410;-67
2023/03/18 10:56:56;;;;;;;4.40;2.80;;;;;;;6.70;100.00;100665.75;107626;1270;22608;-66
2023/03/18 10:59:25;;;;;;;5.10;3.10;;;;;;;6.66;100.00;100666.30;107752;1269;22633;-66
2023/03/18 11:01:59;;;;;;;4.90;2.90;;;;;;;6.61;100.00;100665.48;107742;1273;22528;-66
2023/03/18 11:04:27;;;;;;;5.10;3.40;;;;;;;6.55;100.00;100668.74;110368;1276;22630;-67
2023/03/18 11:07:05;;;;;;;4.90;3.10;;;;;;;6.60;100.00;100661.94;110220;1272;22219;-66
2023/03/18 11:09:35;;;;;;;4.70;3.10;;;;;;;6.76;100.00;100665.94;110199;1271;22859;-66
2023/03/18 11:12:17;;;;;;;5.60;3.20;;;;;;;6.82;100.00;100662.50;110386;1253;22358;-67
2023/03/18 11:14:47;;;;;;;6.90;3.20;;;;;;;6.80;100.00;100663.26;110369;1275;22318;-67
2023/03/18 11:17:18;;;;;;;6.40;3.20;;;;;;;6.79;100.00;100665.60;110449;1276;22214;-67
2023/03/18 11:19:48;;;;;;;6.50;3.80;;;;;;;6.85;100.00;100666.34;110359;1275;22217;-67
2023/03/18 11:22:21;;;;;;;6.00;3.10;;;;;;;7.01;100.00;100661.44;110362;1273;22213;-67
2023/03/18 11:25:10;;;;;;;6.50;3.40;;;;;;;7.09;100.00;100661.77;110273;1276;22986;-67
2023/03/18 11:27:49;;;;;;;4.70;3.30;;;;;;;7.08;100.00;100652.88;110384;1276;22172;-67
2023/03/18 11:30:22;;;;;;;8.30;4.70;;;;;;;7.04;100.00;100653.20;110260;1271;22954;-67
2023/03/18 11:33:05;;;;;;;11.10;7.80;;;;;;;7.04;100.00;100648.88;110267;1277;22167;-67
2023/03/18 11:35:46;;;;;;;5.40;2.70;;;;;;;7.08;100.00;100643.55;110298;1277;22236;-67
2023/03/18 11:38:29;;;;;;;7.00;4.40;;;;;;;7.17;100.00;100639.30;110289;1276;22328;-67